createdAt,value
2017-05-05T00:00:52.702Z,956.24
2017-05-05T00:01:52.676Z,956.22
2017-05-05T00:02:52.699Z,956.27
2017-05-05T00:03:52.717Z,956.23
2017-05-05T00:04:52.742Z,956.27
2017-05-05T00:05:52.781Z,956.29
2017-05-05T00:06:52.789Z,956.27
2017-05-05T00:07:52.812Z,956.27
2017-05-05T00:08:52.836Z,956.27
2017-05-05T00:09:52.864Z,956.32
2017-05-05T00:10:52.883Z,956.25
2017-05-05T00:11:52.907Z,956.32
2017-05-05T00:12:52.941Z,956.34
2017-05-05T00:13:52.961Z,956.31
2017-05-05T00:14:52.983Z,956.33
2017-05-05T00:15:53.007Z,956.31
2017-05-05T00:16:53.032Z,956.35
2017-05-05T00:17:53.067Z,956.36
2017-05-05T00:18:53.134Z,956.35
2017-05-05T00:19:53.108Z,956.35
2017-05-05T00:20:53.134Z,956.34
2017-05-05T00:21:53.157Z,956.37
2017-05-05T00:22:53.186Z,956.32
2017-05-05T00:23:53.212Z,956.35
2017-05-05T00:24:53.237Z,956.36
2017-05-05T00:25:53.268Z,956.33
2017-05-05T00:26:53.288Z,956.3
2017-05-05T00:27:53.315Z,956.29
2017-05-05T00:28:53.339Z,956.31
2017-05-05T00:29:53.365Z,956.3
2017-05-05T00:30:53.397Z,956.29
2017-05-05T00:31:53.416Z,956.28
2017-05-05T00:32:53.441Z,956.31
2017-05-05T00:33:53.471Z,956.31
2017-05-05T00:34:53.497Z,956.31
2017-05-05T00:35:53.519Z,956.3
2017-05-05T00:36:53.545Z,956.3
2017-05-05T00:37:53.621Z,956.29
2017-05-05T00:38:53.605Z,956.3
2017-05-05T00:39:53.628Z,956.3
2017-05-05T00:40:53.651Z,956.28
2017-05-05T00:41:53.693Z,956.25
2017-05-05T00:42:53.703Z,956.24
2017-05-05T00:43:53.730Z,956.26
2017-05-05T00:44:53.754Z,956.24
2017-05-05T00:45:53.782Z,956.27
2017-05-05T00:46:53.810Z,956.29
2017-05-05T00:47:53.841Z,956.25
2017-05-05T00:48:53.860Z,956.22
2017-05-05T00:49:53.889Z,956.26
2017-05-05T00:50:53.914Z,956.26
2017-05-05T00:51:53.942Z,956.28
2017-05-05T00:52:53.966Z,956.27
2017-05-05T00:53:53.993Z,956.28
2017-05-05T00:54:54.021Z,956.29
2017-05-05T00:55:54.109Z,956.31
2017-05-05T00:56:54.074Z,956.32
2017-05-05T00:57:54.125Z,956.27
2017-05-05T00:58:54.125Z,956.29
2017-05-05T00:59:54.150Z,956.27
2017-05-05T01:00:54.177Z,956.29
2017-05-05T01:01:54.209Z,956.29
2017-05-05T01:02:54.226Z,956.26
2017-05-05T01:03:54.256Z,956.26
2017-05-05T01:04:54.282Z,956.27
2017-05-05T01:05:54.308Z,956.3
2017-05-05T01:06:54.334Z,956.3
2017-05-05T01:07:54.360Z,956.27
2017-05-05T01:08:54.387Z,956.31
2017-05-05T01:09:54.413Z,956.3
2017-05-05T01:10:54.491Z,956.34
2017-05-05T01:11:54.466Z,956.33
2017-05-05T01:12:54.492Z,956.35
2017-05-05T01:13:54.518Z,956.33
2017-05-05T01:14:54.545Z,956.38
2017-05-05T01:15:54.573Z,956.36
2017-05-05T01:16:54.597Z,956.36
2017-05-05T01:17:54.623Z,956.41
2017-05-05T01:18:54.650Z,956.43
2017-05-05T01:19:54.677Z,956.39
2017-05-05T01:20:54.704Z,956.42
2017-05-05T01:21:54.730Z,956.43
2017-05-05T01:22:54.765Z,956.38
2017-05-05T01:23:54.784Z,956.39
2017-05-05T01:24:54.810Z,956.4
2017-05-05T01:25:54.833Z,956.4
2017-05-05T01:26:54.862Z,956.45
2017-05-05T01:27:54.889Z,956.42
2017-05-05T01:28:54.922Z,956.42
2017-05-05T01:29:54.942Z,956.42
2017-05-05T01:30:54.966Z,956.47
2017-05-05T01:31:55.008Z,956.45
2017-05-05T01:32:55.021Z,956.46
2017-05-05T01:33:55.046Z,956.41
2017-05-05T01:34:55.073Z,956.44
2017-05-05T01:35:55.110Z,956.46
2017-05-05T01:36:55.131Z,956.48
2017-05-05T01:37:55.160Z,956.49
2017-05-05T01:38:55.182Z,956.5
2017-05-05T01:39:55.214Z,956.51
2017-05-05T01:40:55.230Z,956.52
2017-05-05T01:41:55.256Z,956.55
2017-05-05T01:42:55.281Z,956.53
2017-05-05T01:43:55.309Z,956.55
2017-05-05T01:44:55.387Z,956.53
2017-05-05T01:45:55.360Z,956.55
2017-05-05T01:46:55.388Z,956.55
2017-05-05T01:47:55.416Z,956.56
2017-05-05T01:48:55.490Z,956.57
2017-05-05T01:49:55.466Z,956.56
2017-05-05T01:50:55.491Z,956.58
2017-05-05T01:51:55.525Z,956.57
2017-05-05T01:52:55.546Z,956.56
2017-05-05T01:53:55.571Z,956.61
2017-05-05T01:54:55.597Z,956.58
2017-05-05T01:55:55.628Z,956.59
2017-05-05T01:56:55.649Z,956.53
2017-05-05T01:57:55.676Z,956.55
2017-05-05T01:58:55.704Z,956.58
2017-05-05T01:59:55.732Z,956.57
2017-05-05T02:00:55.757Z,956.56
2017-05-05T02:01:56.227Z,956.57
2017-05-05T02:02:55.808Z,956.56
2017-05-05T02:03:55.838Z,956.6
2017-05-05T02:04:55.864Z,956.57
2017-05-05T02:05:55.927Z,956.6
2017-05-05T02:06:55.962Z,956.59
2017-05-05T02:07:55.938Z,956.57
2017-05-05T02:08:55.964Z,956.59
2017-05-05T02:09:55.991Z,956.6
2017-05-05T02:10:56.017Z,956.59
2017-05-05T02:11:56.044Z,956.58
2017-05-05T02:12:56.068Z,956.58
2017-05-05T02:13:56.096Z,956.58
2017-05-05T02:14:56.121Z,956.6
2017-05-05T02:15:56.147Z,956.61
2017-05-05T02:16:56.177Z,956.58
2017-05-05T02:17:56.255Z,956.59
2017-05-05T02:18:56.226Z,956.54
2017-05-05T02:19:56.252Z,956.56
2017-05-05T02:20:56.284Z,956.54
2017-05-05T02:21:56.307Z,956.58
2017-05-05T02:22:56.329Z,956.56
2017-05-05T02:23:56.357Z,956.57
2017-05-05T02:24:56.389Z,956.59
2017-05-05T02:25:56.411Z,956.59
2017-05-05T02:26:56.435Z,956.58
2017-05-05T02:27:56.460Z,956.59
2017-05-05T02:28:56.489Z,956.6
2017-05-05T02:29:56.516Z,956.63
2017-05-05T02:30:56.540Z,956.6
2017-05-05T02:31:56.566Z,956.57
2017-05-05T02:32:56.663Z,956.6
2017-05-05T02:33:56.619Z,956.59
2017-05-05T02:34:56.648Z,956.59
2017-05-05T02:35:56.672Z,956.57
2017-05-05T02:36:56.697Z,956.58
2017-05-05T02:37:56.724Z,956.61
2017-05-05T02:38:56.749Z,956.58
2017-05-05T02:39:57.195Z,956.57
2017-05-05T02:40:56.802Z,956.61
2017-05-05T02:41:56.827Z,956.59
2017-05-05T02:42:56.853Z,956.6
2017-05-05T02:43:56.881Z,956.59
2017-05-05T02:44:56.907Z,956.61
2017-05-05T02:45:56.936Z,956.62
2017-05-05T02:46:56.991Z,956.62
2017-05-05T02:47:56.995Z,956.65
2017-05-05T02:48:57.012Z,956.61
2017-05-05T02:49:57.039Z,956.62
2017-05-05T02:50:57.063Z,956.6
2017-05-05T02:51:57.131Z,956.66
2017-05-05T02:52:57.115Z,956.63
2017-05-05T02:53:57.291Z,956.64
2017-05-05T02:54:57.168Z,956.63
2017-05-05T02:55:57.194Z,956.64
2017-05-05T02:56:57.224Z,956.61
2017-05-05T02:57:57.248Z,956.6
2017-05-05T02:58:57.323Z,956.63
2017-05-05T02:59:57.298Z,956.64
2017-05-05T03:00:57.322Z,956.65
2017-05-05T03:01:57.356Z,956.65
2017-05-05T03:02:57.390Z,956.64
2017-05-05T03:03:57.403Z,956.65
2017-05-05T03:04:57.429Z,956.65
2017-05-05T03:05:57.454Z,956.67
2017-05-05T03:06:57.481Z,956.69
2017-05-05T03:07:57.509Z,956.67
2017-05-05T03:08:57.532Z,956.65
2017-05-05T03:09:57.561Z,956.7
2017-05-05T03:10:57.584Z,956.69
2017-05-05T03:11:57.611Z,956.71
2017-05-05T03:12:57.636Z,956.67
2017-05-05T03:13:57.663Z,956.69
2017-05-05T03:14:57.690Z,956.71
2017-05-05T03:15:57.714Z,956.69
2017-05-05T03:16:57.742Z,956.67
2017-05-05T03:17:57.766Z,956.67
2017-05-05T03:18:57.793Z,956.69
2017-05-05T03:19:57.821Z,956.68
2017-05-05T03:20:57.846Z,956.73
2017-05-05T03:21:57.872Z,956.76
2017-05-05T03:22:57.899Z,956.75
2017-05-05T03:23:57.925Z,956.75
2017-05-05T03:24:57.955Z,956.76
2017-05-05T03:25:57.976Z,956.76
2017-05-05T03:26:58.003Z,956.79
2017-05-05T03:27:58.079Z,956.76
2017-05-05T03:28:58.054Z,956.8
2017-05-05T03:29:58.089Z,956.82
2017-05-05T03:30:58.107Z,956.81
2017-05-05T03:31:58.139Z,956.8
2017-05-05T03:32:58.160Z,956.76
2017-05-05T03:33:58.184Z,956.86
2017-05-05T03:34:58.210Z,956.82
2017-05-05T03:35:58.236Z,956.84
2017-05-05T03:36:58.261Z,956.89
2017-05-05T03:37:58.288Z,956.86
2017-05-05T03:38:58.314Z,956.85
2017-05-05T03:39:58.340Z,956.89
2017-05-05T03:40:58.366Z,956.87
2017-05-05T03:41:58.395Z,956.94
2017-05-05T03:42:58.418Z,956.91
2017-05-05T03:43:58.444Z,956.9
2017-05-05T03:44:58.519Z,956.92
2017-05-05T03:45:58.499Z,956.89
2017-05-05T03:46:58.522Z,956.89
2017-05-05T03:47:58.549Z,956.9
2017-05-05T03:48:58.579Z,956.91
2017-05-05T03:49:58.603Z,956.95
2017-05-05T03:50:58.624Z,956.94
2017-05-05T03:51:58.652Z,956.99
2017-05-05T03:52:58.679Z,956.97
2017-05-05T03:53:58.704Z,956.95
2017-05-05T03:54:58.729Z,956.95
2017-05-05T03:55:58.756Z,956.97
2017-05-05T03:56:58.781Z,956.99
2017-05-05T03:57:58.829Z,957.03
2017-05-05T03:58:58.834Z,957
2017-05-05T03:59:58.919Z,957.01
2017-05-05T04:00:58.886Z,957.02
2017-05-05T04:01:58.913Z,957.04
2017-05-05T04:02:58.937Z,957.07
2017-05-05T04:03:58.961Z,957.04
2017-05-05T04:04:58.988Z,957.07
2017-05-05T04:05:59.016Z,957.05
2017-05-05T04:06:59.058Z,957.05
2017-05-05T04:07:59.087Z,957.12
2017-05-05T04:08:59.095Z,957.11
2017-05-05T04:09:59.121Z,957.1
2017-05-05T04:10:59.145Z,957.09
2017-05-05T04:11:59.171Z,957.11
2017-05-05T04:12:59.196Z,957.12
2017-05-05T04:13:59.222Z,957.12
2017-05-05T04:14:59.248Z,957.11
2017-05-05T04:15:59.275Z,957.1
2017-05-05T04:16:59.300Z,957.12
2017-05-05T04:17:59.377Z,957.17
2017-05-05T04:18:59.363Z,957.14
2017-05-05T04:19:59.381Z,957.13
2017-05-05T04:20:59.403Z,957.18
2017-05-05T04:21:59.430Z,957.19
2017-05-05T04:22:59.456Z,957.22
2017-05-05T04:23:59.485Z,957.21
2017-05-05T04:24:59.508Z,957.22
2017-05-05T04:25:59.534Z,957.22
2017-05-05T04:26:59.559Z,957.26
2017-05-05T04:27:59.584Z,957.25
2017-05-05T04:28:59.611Z,957.27
2017-05-05T04:29:59.638Z,957.22
2017-05-05T04:30:59.663Z,957.25
2017-05-05T04:31:59.688Z,957.28
2017-05-05T04:32:59.715Z,957.27
2017-05-05T04:33:59.741Z,957.26
2017-05-05T04:34:59.766Z,957.26
2017-05-05T04:35:59.794Z,957.29
2017-05-05T04:36:59.818Z,957.3
2017-05-05T04:37:59.842Z,957.32
2017-05-05T04:38:59.869Z,957.27
2017-05-05T04:39:59.895Z,957.29
2017-05-05T04:40:59.924Z,957.33
2017-05-05T04:41:59.948Z,957.31
2017-05-05T04:42:59.975Z,957.3
2017-05-05T04:43:59.998Z,957.34
2017-05-05T04:45:00.031Z,957.3
2017-05-05T04:46:00.050Z,957.32
2017-05-05T04:47:00.077Z,957.35
2017-05-05T04:48:00.104Z,957.32
2017-05-05T04:49:00.130Z,957.37
2017-05-05T04:50:00.156Z,957.37
2017-05-05T04:51:00.184Z,957.35
2017-05-05T04:52:00.211Z,957.38
2017-05-05T04:53:00.233Z,957.37
2017-05-05T04:54:00.259Z,957.36
2017-05-05T04:55:00.291Z,957.35
2017-05-05T04:56:00.312Z,957.39
2017-05-05T04:57:00.388Z,957.42
2017-05-05T04:58:00.363Z,957.37
2017-05-05T04:59:00.391Z,957.39
2017-05-05T05:00:00.415Z,957.38
2017-05-05T05:01:00.461Z,957.43
2017-05-05T05:02:00.467Z,957.43
2017-05-05T05:03:00.493Z,957.41
2017-05-05T05:04:00.522Z,957.45
2017-05-05T05:05:00.545Z,957.45
2017-05-05T05:06:00.573Z,957.48
2017-05-05T05:07:00.597Z,957.46
2017-05-05T05:08:00.624Z,957.48
2017-05-05T05:09:00.650Z,957.49
2017-05-05T05:10:00.675Z,957.45
2017-05-05T05:11:00.705Z,957.48
2017-05-05T05:12:00.728Z,957.49
2017-05-05T05:13:00.754Z,957.52
2017-05-05T05:14:00.778Z,957.52
2017-05-05T05:15:00.855Z,957.5
2017-05-05T05:16:00.832Z,957.53
2017-05-05T05:17:00.860Z,957.56
2017-05-05T05:18:00.884Z,957.51
2017-05-05T05:19:00.910Z,957.52
2017-05-05T05:20:00.936Z,957.55
2017-05-05T05:21:00.962Z,957.55
2017-05-05T05:22:00.992Z,957.57
2017-05-05T05:23:01.015Z,957.61
2017-05-05T05:24:01.041Z,957.61
2017-05-05T05:25:01.068Z,957.6
2017-05-05T05:26:01.092Z,957.63
2017-05-05T05:27:01.127Z,957.67
2017-05-05T05:28:01.167Z,957.64
2017-05-05T05:29:01.172Z,957.68
2017-05-05T05:30:01.199Z,957.73
2017-05-05T05:31:01.223Z,957.72
2017-05-05T05:32:01.299Z,957.71
2017-05-05T05:33:01.278Z,957.76
2017-05-05T05:34:01.305Z,957.74
2017-05-05T05:35:01.345Z,957.76
2017-05-05T05:36:01.354Z,957.73
2017-05-05T05:37:01.380Z,957.74
2017-05-05T05:38:01.407Z,957.75
2017-05-05T05:39:01.433Z,957.82
2017-05-05T05:40:01.460Z,957.8
2017-05-05T05:41:01.484Z,957.78
2017-05-05T05:42:01.521Z,957.8
2017-05-05T05:43:01.537Z,957.81
2017-05-05T05:44:01.683Z,957.76
2017-05-05T05:45:01.589Z,957.79
2017-05-05T05:46:01.618Z,957.78
2017-05-05T05:47:01.649Z,957.82
2017-05-05T05:48:01.669Z,957.79
2017-05-05T05:49:01.744Z,957.81
2017-05-05T05:50:01.718Z,957.83
2017-05-05T05:51:01.778Z,957.81
2017-05-05T05:52:01.776Z,957.85
2017-05-05T05:53:01.798Z,957.85
2017-05-05T05:54:01.825Z,957.86
2017-05-05T05:55:01.848Z,957.87
2017-05-05T05:56:01.875Z,957.91
2017-05-05T05:57:01.901Z,957.9
2017-05-05T05:58:01.948Z,957.89
2017-05-05T05:59:01.956Z,957.85
2017-05-05T06:00:01.983Z,957.85
2017-05-05T06:01:02.005Z,957.93
2017-05-05T06:02:02.030Z,957.9
2017-05-05T06:03:02.060Z,957.94
2017-05-05T06:04:02.083Z,957.95
2017-05-05T06:05:02.110Z,957.93
2017-05-05T06:06:02.197Z,957.96
2017-05-05T06:07:02.164Z,957.99
2017-05-05T06:08:02.239Z,957.98
2017-05-05T06:09:02.215Z,957.96
2017-05-05T06:10:02.242Z,957.96
2017-05-05T06:11:02.264Z,957.95
2017-05-05T06:12:02.292Z,957.99
2017-05-05T06:13:02.319Z,958
2017-05-05T06:14:02.343Z,958.01
2017-05-05T06:15:02.372Z,958.02
2017-05-05T06:16:02.394Z,958.03
2017-05-05T06:17:02.423Z,958.05
2017-05-05T06:18:02.445Z,958.02
2017-05-05T06:19:02.475Z,958.06
2017-05-05T06:20:02.499Z,958.07
2017-05-05T06:21:02.538Z,958.09
2017-05-05T06:22:02.553Z,958.08
2017-05-05T06:23:02.578Z,958.13
2017-05-05T06:24:02.604Z,958.14
2017-05-05T06:25:02.630Z,958.13
2017-05-05T06:26:02.658Z,958.16
2017-05-05T06:27:02.733Z,958.15
2017-05-05T06:28:02.707Z,958.15
2017-05-05T06:29:02.734Z,958.2
2017-05-05T06:30:02.761Z,958.21
2017-05-05T06:31:02.788Z,958.19
2017-05-05T06:32:02.837Z,958.21
2017-05-05T06:33:02.840Z,958.19
2017-05-05T06:34:02.865Z,958.23
2017-05-05T06:35:02.945Z,958.21
2017-05-05T06:36:02.916Z,958.22
2017-05-05T06:37:02.958Z,958.21
2017-05-05T06:38:02.971Z,958.22
2017-05-05T06:39:02.993Z,958.19
2017-05-05T06:40:03.020Z,958.19
2017-05-05T06:41:03.047Z,958.24
2017-05-05T06:42:03.071Z,958.25
2017-05-05T06:43:03.105Z,958.22
2017-05-05T06:44:03.129Z,958.22
2017-05-05T06:45:03.201Z,958.27
2017-05-05T06:46:03.179Z,958.26
2017-05-05T06:47:03.202Z,958.27
2017-05-05T06:48:03.229Z,958.25
2017-05-05T06:49:03.259Z,958.25
2017-05-05T06:50:03.281Z,958.3
2017-05-05T06:51:03.307Z,958.3
2017-05-05T06:52:03.333Z,958.3
2017-05-05T06:53:03.358Z,958.31
2017-05-05T06:54:03.385Z,958.3
2017-05-05T06:55:03.414Z,958.27
2017-05-05T06:56:03.457Z,958.27
2017-05-05T06:57:03.462Z,958.28
2017-05-05T06:58:03.496Z,958.25
2017-05-05T06:59:03.518Z,958.29
2017-05-05T07:00:03.544Z,958.28
2017-05-05T07:01:03.569Z,958.26
2017-05-05T07:02:03.610Z,958.31
2017-05-05T07:03:03.623Z,958.26
2017-05-05T07:04:03.701Z,958.31
2017-05-05T07:05:03.716Z,958.32
2017-05-05T07:06:03.699Z,958.29
2017-05-05T07:07:03.725Z,958.31
2017-05-05T07:08:03.750Z,958.3
2017-05-05T07:09:03.783Z,958.31
2017-05-05T07:10:03.904Z,958.32
2017-05-05T07:11:03.835Z,958.35
2017-05-05T07:12:03.856Z,958.3
2017-05-05T07:13:03.883Z,958.34
2017-05-05T07:14:03.908Z,958.33
2017-05-05T07:15:03.934Z,958.32
2017-05-05T07:16:03.961Z,958.32
2017-05-05T07:17:04.013Z,958.29
2017-05-05T07:18:04.015Z,958.32
2017-05-05T07:19:04.040Z,958.28
2017-05-05T07:20:04.065Z,958.27
2017-05-05T07:21:04.141Z,958.3
2017-05-05T07:22:04.120Z,958.32
2017-05-05T07:23:04.146Z,958.24
2017-05-05T07:24:04.174Z,958.26
2017-05-05T07:25:04.197Z,958.32
2017-05-05T07:26:04.226Z,958.32
2017-05-05T07:27:04.251Z,958.28
2017-05-05T07:28:04.275Z,958.28
2017-05-05T07:29:04.302Z,958.32
2017-05-05T07:30:04.328Z,958.31
2017-05-05T07:31:04.355Z,958.33
2017-05-05T07:32:04.382Z,958.31
2017-05-05T07:33:04.410Z,958.3
2017-05-05T07:34:04.434Z,958.33
2017-05-05T07:35:04.459Z,958.3
2017-05-05T07:36:04.538Z,958.31
2017-05-05T07:37:04.510Z,958.3
2017-05-05T07:38:04.537Z,958.32
2017-05-05T07:39:04.566Z,958.32
2017-05-05T07:40:04.601Z,958.32
2017-05-05T07:41:04.616Z,958.29
2017-05-05T07:42:04.642Z,958.35
2017-05-05T07:43:04.668Z,958.37
2017-05-05T07:44:04.695Z,958.33
2017-05-05T07:45:04.720Z,958.32
2017-05-05T07:46:04.753Z,958.34
2017-05-05T07:47:04.776Z,958.33
2017-05-05T07:48:04.800Z,958.37
2017-05-05T07:49:04.826Z,958.37
2017-05-05T07:50:04.851Z,958.36
2017-05-05T07:51:04.928Z,958.36
2017-05-05T07:52:04.908Z,958.37
2017-05-05T07:53:04.931Z,958.35
2017-05-05T07:54:05.106Z,958.31
2017-05-05T07:55:04.985Z,958.34
2017-05-05T07:56:05.011Z,958.3
2017-05-05T07:57:05.037Z,958.35
2017-05-05T07:58:05.065Z,958.33
2017-05-05T07:59:05.092Z,958.37
2017-05-05T08:00:05.115Z,958.31
2017-05-05T08:01:05.144Z,958.33
2017-05-05T08:02:05.168Z,958.29
2017-05-05T08:03:05.195Z,958.3
2017-05-05T08:04:05.222Z,958.32
2017-05-05T08:05:05.247Z,958.34
2017-05-05T08:06:05.326Z,958.33
2017-05-05T08:07:05.301Z,958.33
2017-05-05T08:08:05.448Z,958.29
2017-05-05T08:09:05.353Z,958.3
2017-05-05T08:10:05.383Z,958.3
2017-05-05T08:11:05.417Z,958.32
2017-05-05T08:12:05.435Z,958.32
2017-05-05T08:13:05.459Z,958.27
2017-05-05T08:14:05.485Z,958.26
2017-05-05T08:15:05.512Z,958.33
2017-05-05T08:16:05.539Z,958.32
2017-05-05T08:17:05.566Z,958.3
2017-05-05T08:18:05.591Z,958.35
2017-05-05T08:19:05.618Z,958.32
2017-05-05T08:20:05.647Z,958.33
2017-05-05T08:21:05.673Z,958.39
2017-05-05T08:22:06.025Z,958.36
2017-05-05T08:23:05.731Z,958.38
2017-05-05T08:24:05.753Z,958.38
2017-05-05T08:25:05.779Z,958.36
2017-05-05T08:26:05.806Z,958.31
2017-05-05T08:27:05.833Z,958.38
2017-05-05T08:28:05.860Z,958.33
2017-05-05T08:29:05.886Z,958.38
2017-05-05T08:30:05.914Z,958.4
2017-05-05T08:31:05.941Z,958.42
2017-05-05T08:32:05.967Z,958.41
2017-05-05T08:33:07.904Z,958.4
2017-05-05T08:34:06.021Z,958.42
2017-05-05T08:35:06.058Z,958.46
2017-05-05T08:36:06.303Z,958.43
2017-05-05T08:37:06.101Z,958.44
2017-05-05T08:38:06.130Z,958.41
2017-05-05T08:39:06.187Z,958.42
2017-05-05T08:40:06.183Z,958.43
2017-05-05T08:41:06.259Z,958.41
2017-05-05T08:42:06.238Z,958.44
2017-05-05T08:43:06.430Z,958.46
2017-05-05T08:44:06.290Z,958.47
2017-05-05T08:45:06.320Z,958.44
2017-05-05T08:46:06.346Z,958.47
2017-05-05T08:47:06.371Z,958.47
2017-05-05T08:48:06.398Z,958.48
2017-05-05T08:49:06.430Z,958.48
2017-05-05T08:50:06.461Z,958.5
2017-05-05T08:51:06.480Z,958.51
2017-05-05T08:52:06.509Z,958.53
2017-05-05T08:53:06.541Z,958.54
2017-05-05T08:54:06.562Z,958.52
2017-05-05T08:55:06.603Z,958.54
2017-05-05T08:56:06.621Z,958.48
2017-05-05T08:57:06.694Z,958.48
2017-05-05T08:58:06.671Z,958.53
2017-05-05T08:59:06.708Z,958.51
2017-05-05T09:00:06.725Z,958.5
2017-05-05T09:01:06.752Z,958.47
2017-05-05T09:02:06.783Z,958.52
2017-05-05T09:03:06.805Z,958.48
2017-05-05T09:04:06.838Z,958.48
2017-05-05T09:05:07.020Z,958.52
2017-05-05T09:06:06.888Z,958.51
2017-05-05T09:07:06.915Z,958.53
2017-05-05T09:08:06.942Z,958.49
2017-05-05T09:09:06.973Z,958.54
2017-05-05T09:10:06.996Z,958.51
2017-05-05T09:11:07.024Z,958.52
2017-05-05T09:12:07.181Z,958.56
2017-05-05T09:13:07.084Z,958.52
2017-05-05T09:14:07.304Z,958.56
2017-05-05T09:15:07.134Z,958.58
2017-05-05T09:16:07.158Z,958.59
2017-05-05T09:17:07.188Z,958.6
2017-05-05T09:18:07.213Z,958.6
2017-05-05T09:19:07.339Z,958.61
2017-05-05T09:20:07.267Z,958.65
2017-05-05T09:21:07.293Z,958.69
2017-05-05T09:22:07.321Z,958.67
2017-05-05T09:23:07.348Z,958.68
2017-05-05T09:24:07.376Z,958.66
2017-05-05T09:25:07.411Z,958.71
2017-05-05T09:26:07.431Z,958.72
2017-05-05T09:27:07.456Z,958.72
2017-05-05T09:28:07.483Z,958.7
2017-05-05T09:29:07.510Z,958.73
2017-05-05T09:30:07.591Z,958.76
2017-05-05T09:31:07.608Z,958.76
2017-05-05T09:32:07.592Z,958.72
2017-05-05T09:33:07.641Z,958.72
2017-05-05T09:34:07.647Z,958.77
2017-05-05T09:35:07.674Z,958.75
2017-05-05T09:36:07.718Z,958.74
2017-05-05T09:37:07.734Z,958.75
2017-05-05T09:38:07.764Z,958.79
2017-05-05T09:39:07.784Z,958.83
2017-05-05T09:40:07.851Z,958.81
2017-05-05T09:41:07.836Z,958.83
2017-05-05T09:42:07.864Z,958.82
2017-05-05T09:43:07.892Z,958.84
2017-05-05T09:44:07.919Z,958.84
2017-05-05T09:45:07.946Z,958.86
2017-05-05T09:46:08.185Z,958.86
2017-05-05T09:47:08.097Z,958.86
2017-05-05T09:48:08.029Z,958.89
2017-05-05T09:49:08.056Z,958.87
2017-05-05T09:50:08.087Z,958.86
2017-05-05T09:51:08.118Z,958.92
2017-05-05T09:52:08.141Z,958.87
2017-05-05T09:53:08.166Z,958.9
2017-05-05T09:54:08.191Z,958.88
2017-05-05T09:55:08.298Z,958.88
2017-05-05T09:56:08.245Z,958.88
2017-05-05T09:57:08.279Z,958.9
2017-05-05T09:58:08.308Z,958.88
2017-05-05T09:59:08.332Z,958.9
2017-05-05T10:00:08.354Z,958.89
2017-05-05T10:01:08.430Z,958.89
2017-05-05T10:02:08.415Z,958.9
2017-05-05T10:03:08.434Z,958.88
2017-05-05T10:04:08.465Z,958.94
2017-05-05T10:05:08.497Z,958.89
2017-05-05T10:06:08.519Z,958.91
2017-05-05T10:07:08.549Z,958.92
2017-05-05T10:08:08.571Z,958.88
2017-05-05T10:09:08.660Z,958.88
2017-05-05T10:10:08.626Z,958.89
2017-05-05T10:11:08.652Z,958.9
2017-05-05T10:12:08.679Z,958.9
2017-05-05T10:13:08.713Z,958.9
2017-05-05T10:14:08.734Z,958.88
2017-05-05T10:15:08.761Z,958.88
2017-05-05T10:16:08.856Z,958.84
2017-05-05T10:17:08.819Z,958.89
2017-05-05T10:18:08.844Z,958.85
2017-05-05T10:19:08.920Z,958.83
2017-05-05T10:20:08.903Z,958.84
2017-05-05T10:21:08.948Z,958.86
2017-05-05T10:22:08.952Z,958.86
2017-05-05T10:23:09.006Z,958.84
2017-05-05T10:24:09.006Z,958.83
2017-05-05T10:25:09.033Z,958.83
2017-05-05T10:26:09.064Z,958.83
2017-05-05T10:27:09.087Z,958.8
2017-05-05T10:28:09.117Z,958.81
2017-05-05T10:29:09.152Z,958.77
2017-05-05T10:30:09.237Z,958.76
2017-05-05T10:31:09.198Z,958.79
2017-05-05T10:32:09.221Z,958.78
2017-05-05T10:33:09.252Z,958.76
2017-05-05T10:34:09.277Z,958.77
2017-05-05T10:35:09.558Z,958.75
2017-05-05T10:36:09.331Z,958.78
2017-05-05T10:37:09.370Z,958.76
2017-05-05T10:38:09.390Z,958.7
2017-05-05T10:39:09.414Z,958.71
2017-05-05T10:40:09.439Z,958.72
2017-05-05T10:41:09.472Z,958.73
2017-05-05T10:42:09.528Z,958.69
2017-05-05T10:43:09.521Z,958.68
2017-05-05T10:44:09.656Z,958.71
2017-05-05T10:45:09.589Z,958.71
2017-05-05T10:46:09.602Z,958.7
2017-05-05T10:47:09.633Z,958.68
2017-05-05T10:48:09.657Z,958.71
2017-05-05T10:49:09.710Z,958.66
2017-05-05T10:50:09.867Z,958.69
2017-05-05T10:51:09.771Z,958.64
2017-05-05T10:52:09.766Z,958.66
2017-05-05T10:53:09.865Z,958.65
2017-05-05T10:54:09.821Z,958.69
2017-05-05T10:55:09.860Z,958.69
2017-05-05T10:56:09.876Z,958.66
2017-05-05T10:57:09.903Z,958.7
2017-05-05T10:58:10.041Z,958.65
2017-05-05T10:59:09.983Z,958.68
2017-05-05T11:00:09.985Z,958.66
2017-05-05T11:01:10.028Z,958.66
2017-05-05T11:02:10.039Z,958.65
2017-05-05T11:03:10.067Z,958.66
2017-05-05T11:04:10.096Z,958.67
2017-05-05T11:05:10.267Z,958.69
2017-05-05T11:06:10.206Z,958.71
2017-05-05T11:07:10.180Z,958.74
2017-05-05T11:08:10.207Z,958.71
2017-05-05T11:09:10.247Z,958.7
2017-05-05T11:10:10.266Z,958.71
2017-05-05T11:11:10.432Z,958.72
2017-05-05T11:12:10.318Z,958.7
2017-05-05T11:13:10.346Z,958.69
2017-05-05T11:14:10.373Z,958.68
2017-05-05T11:15:10.403Z,958.67
2017-05-05T11:16:10.469Z,958.68
2017-05-05T11:17:10.465Z,958.7
2017-05-05T11:18:10.684Z,958.64
2017-05-05T11:19:10.512Z,958.68
2017-05-05T11:20:10.541Z,958.67
2017-05-05T11:21:10.567Z,958.69
2017-05-05T11:22:10.598Z,958.76
2017-05-05T11:23:10.954Z,958.73
2017-05-05T11:24:10.653Z,958.7
2017-05-05T11:25:10.723Z,958.69
2017-05-05T11:26:10.708Z,958.75
2017-05-05T11:27:10.747Z,958.73
2017-05-05T11:28:10.771Z,958.76
2017-05-05T11:29:11.191Z,958.77
2017-05-05T11:30:11.314Z,958.82
2017-05-05T11:31:10.846Z,958.82
2017-05-05T11:32:11.029Z,958.83
2017-05-05T11:33:10.903Z,958.82
2017-05-05T11:34:10.929Z,958.81
2017-05-05T11:35:10.971Z,958.84
2017-05-05T11:36:11.180Z,958.82
2017-05-05T11:37:11.030Z,958.87
2017-05-05T11:38:11.039Z,958.84
2017-05-05T11:39:11.215Z,958.87
2017-05-05T11:40:11.096Z,958.8
2017-05-05T11:41:11.274Z,958.83
2017-05-05T11:42:11.153Z,958.83
2017-05-05T11:43:11.179Z,958.81
2017-05-05T11:44:11.390Z,958.82
2017-05-05T11:45:11.235Z,958.82
2017-05-05T11:46:11.396Z,958.82
2017-05-05T11:47:11.289Z,958.8
2017-05-05T11:48:11.319Z,958.78
2017-05-05T11:49:11.344Z,958.79
2017-05-05T11:50:11.373Z,958.79
2017-05-05T11:51:11.625Z,958.81
2017-05-05T11:52:11.677Z,958.8
2017-05-05T11:53:11.455Z,958.81
2017-05-05T11:54:11.607Z,958.81
2017-05-05T11:55:11.513Z,958.81
2017-05-05T11:56:11.537Z,958.81
2017-05-05T11:57:11.974Z,958.83
2017-05-05T11:58:11.599Z,958.82
2017-05-05T11:59:11.733Z,958.85
2017-05-05T12:00:11.675Z,958.8
2017-05-05T12:01:11.676Z,958.83
2017-05-05T12:02:11.711Z,958.84
2017-05-05T12:03:11.731Z,958.85
2017-05-05T12:04:11.876Z,958.85
2017-05-05T12:05:11.794Z,958.87
2017-05-05T12:06:11.949Z,958.86
2017-05-05T12:07:11.845Z,958.88
2017-05-05T12:08:12.032Z,958.88
2017-05-05T12:09:11.897Z,958.9
2017-05-05T12:10:11.926Z,958.91
2017-05-05T12:11:11.951Z,958.91
2017-05-05T12:12:12.061Z,958.93
2017-05-05T12:13:12.009Z,958.89
2017-05-05T12:14:12.342Z,958.91
2017-05-05T12:15:12.061Z,958.9
2017-05-05T12:16:12.093Z,958.89
2017-05-05T12:17:12.117Z,958.91
2017-05-05T12:18:12.147Z,958.93
2017-05-05T12:19:12.279Z,958.92
2017-05-05T12:20:12.202Z,958.9
2017-05-05T12:21:13.512Z,958.87
2017-05-05T12:22:12.263Z,958.87
2017-05-05T12:23:12.289Z,958.86
2017-05-05T12:24:12.318Z,958.83
2017-05-05T12:25:12.342Z,958.87
2017-05-05T12:26:12.452Z,958.87
2017-05-05T12:27:12.397Z,958.83
2017-05-05T12:28:12.520Z,958.85
2017-05-05T12:29:12.457Z,958.8
2017-05-05T12:30:12.530Z,958.83
2017-05-05T12:31:12.508Z,958.83
2017-05-05T12:32:12.536Z,958.82